Time;durP1;ratioP1;P1;durP2;ratioP2;P2;SDS_P1;SDS_P2;PMS_P1;PMS_P2;Temp;Humidity;BMP_temperature;BMP_pressure;BME280_temperature;BME280_humidity;BME280_pressure;Samples;Min_cycle;Max_cycle;Signal;HPM_P1;HPM_P2
2021/12/22 00:00:59;;;;;;;13.50;9.80;;;-0.30;99.90;;;;;;5090991;28;20400;-72
2021/12/22 00:03:25;;;;;;;14.27;10.27;;;0.00;99.90;;;;;;5091285;28;20058;-72
2021/12/22 00:05:52;;;;;;;18.60;10.90;;;-0.20;99.90;;;;;;5095052;28;20063;-72
2021/12/22 00:08:18;;;;;;;14.93;9.07;;;-0.10;99.90;;;;;;5090077;28;20044;-72
2021/12/22 00:10:45;;;;;;;13.65;9.13;;;0.50;99.90;;;;;;5093190;28;20082;-72
2021/12/22 00:13:12;;;;;;;15.75;10.35;;;-0.60;99.90;;;;;;5091357;28;20040;-71
2021/12/22 00:15:38;;;;;;;17.40;9.75;;;-0.10;99.90;;;;;;5094990;28;20048;-73
2021/12/22 00:18:04;;;;;;;18.58;10.20;;;-0.40;99.90;;;;;;5094524;28;20045;-72
2021/12/22 00:20:30;;;;;;;23.80;11.60;;;-0.10;99.90;;;;;;5093611;28;20091;-73
2021/12/22 00:22:56;;;;;;;16.52;10.68;;;-0.10;99.90;;;;;;5092272;28;20040;-72
2021/12/22 00:25:25;;;;;;;14.15;10.20;;;0.70;99.90;;;;;;5093551;28;20117;-72
2021/12/22 00:27:52;;;;;;;17.67;10.45;;;0.40;99.90;;;;;;5092800;28;20096;-73
2021/12/22 00:30:18;;;;;;;17.40;12.05;;;-0.10;99.90;;;;;;5093517;28;20428;-71
2021/12/22 00:32:51;;;;;;;21.48;11.20;;;-0.40;99.90;;;;;;5090944;28;20108;-72
2021/12/22 00:35:19;;;;;;;13.38;9.18;;;-0.30;99.90;;;;;;5092369;28;20036;-73
2021/12/22 00:37:45;;;;;;;15.77;9.85;;;-0.50;99.90;;;;;;5093374;28;20040;-72
2021/12/22 00:40:11;;;;;;;17.02;10.35;;;-0.40;99.90;;;;;;5091763;28;20089;-72
2021/12/22 00:42:37;;;;;;;16.33;10.07;;;-0.50;99.90;;;;;;5092349;28;20036;-72
2021/12/22 00:45:03;;;;;;;13.93;10.38;;;0.00;99.90;;;;;;5092208;28;20457;-73
2021/12/22 00:47:30;;;;;;;19.00;11.43;;;-0.40;99.90;;;;;;5092486;28;20115;-72
2021/12/22 00:49:58;;;;;;;14.10;9.40;;;-0.10;99.90;;;;;;5092699;28;20075;-73
2021/12/22 00:52:24;;;;;;;18.35;11.52;;;0.50;99.90;;;;;;5090876;28;20044;-73
2021/12/22 00:54:50;;;;;;;15.95;10.63;;;-0.30;99.90;;;;;;5092625;28;20441;-71
2021/12/22 00:57:16;;;;;;;17.83;11.68;;;-0.60;99.90;;;;;;5093448;28;20047;-73
2021/12/22 00:59:43;;;;;;;17.92;11.20;;;-0.20;99.90;;;;;;5092717;28;20115;-72
2021/12/22 01:02:11;;;;;;;20.55;10.82;;;0.30;99.90;;;;;;5091360;28;20040;-72
2021/12/22 01:04:37;;;;;;;20.60;12.15;;;-0.60;99.90;;;;;;5092001;28;20135;-71
2021/12/22 01:07:03;;;;;;;18.98;11.27;;;-0.40;99.90;;;;;;5091359;28;20052;-72
2021/12/22 01:09:29;;;;;;;17.77;10.82;;;-0.70;99.90;;;;;;5072289;28;20119;-71
2021/12/22 01:11:55;;;;;;;14.48;9.77;;;-0.70;99.90;;;;;;5074791;28;20178;-72
2021/12/22 01:14:22;;;;;;;16.50;10.13;;;-0.70;99.90;;;;;;5092578;28;20059;-71
2021/12/22 01:16:50;;;;;;;17.90;10.35;;;-0.20;99.90;;;;;;5093113;28;20046;-73
2021/12/22 01:19:23;;;;;;;17.25;11.15;;;-0.30;99.90;;;;;;5092153;28;20052;-71
2021/12/22 01:21:51;;;;;;;18.42;11.32;;;-0.70;99.90;;;;;;5090711;28;20055;-72
2021/12/22 01:24:37;;;;;;;21.50;11.50;;;-0.40;99.90;;;;;;5092546;28;20048;-70
2021/12/22 01:27:08;;;;;;;16.40;10.90;;;-0.60;99.90;;;;;;5072039;28;20048;-71
2021/12/22 01:29:36;;;;;;;16.77;10.30;;;-0.20;99.90;;;;;;5075584;28;20071;-70
2021/12/22 01:32:02;;;;;;;16.70;9.98;;;-0.30;99.90;;;;;;5091135;28;20050;-72
2021/12/22 01:34:28;;;;;;;19.60;11.98;;;-0.50;99.90;;;;;;5091566;28;20031;-72
2021/12/22 01:36:54;;;;;;;32.20;17.23;;;-0.20;99.90;;;;;;5090669;28;20487;-72
2021/12/22 01:39:20;;;;;;;22.55;12.63;;;-0.30;99.90;;;;;;5091214;28;20048;-70
2021/12/22 01:41:45;;;;;;;21.60;12.32;;;-0.20;99.90;;;;;;5059324;28;20423;-72
2021/12/22 01:44:24;;;;;;;23.63;13.75;;;0.60;99.90;;;;;;5090902;28;20044;-70
2021/12/22 01:49:49;;;;;;;32.47;19.13;;;-0.80;99.90;;;;;;5048927;28;20131;-71
2021/12/22 01:52:15;;;;;;;32.33;16.88;;;-0.50;99.90;;;;;;5081773;28;20052;-70
2021/12/22 01:54:50;;;;;;;24.60;13.68;;;-0.40;99.90;;;;;;5092509;28;20043;-73
2021/12/22 01:57:18;;;;;;;21.45;13.30;;;-0.50;99.90;;;;;;5090750;28;20084;-73
2021/12/22 01:59:47;;;;;;;20.85;12.20;;;-0.80;99.90;;;;;;5092128;28;20051;-71
2021/12/22 02:02:14;;;;;;;21.85;12.55;;;-0.80;99.90;;;;;;5091094;28;20039;-72
2021/12/22 02:04:41;;;;;;;17.17;11.38;;;-0.40;99.90;;;;;;5090491;28;20056;-72
2021/12/22 02:07:08;;;;;;;21.27;13.98;;;-0.30;99.90;;;;;;5084558;28;20432;-73
2021/12/22 02:12:01;;;;;;;17.90;11.68;;;-0.80;99.90;;;;;;5074507;28;20056;-72
2021/12/22 02:14:26;;;;;;;19.92;11.80;;;-0.30;99.90;;;;;;5087477;28;20045;-70
2021/12/22 02:16:52;;;;;;;21.45;12.13;;;-0.10;99.90;;;;;;5068368;28;20085;-71
2021/12/22 02:19:18;;;;;;;14.80;10.18;;;-0.60;99.90;;;;;;5090144;28;20044;-72
2021/12/22 02:21:50;;;;;;;21.00;12.55;;;-0.60;99.90;;;;;;5090743;28;20052;-72
2021/12/22 02:24:16;;;;;;;21.15;13.13;;;-0.70;99.90;;;;;;5089711;28;20055;-72
2021/12/22 02:26:51;;;;;;;18.70;12.77;;;-0.30;99.90;;;;;;5090320;28;20043;-73
2021/12/22 02:29:23;;;;;;;21.42;12.52;;;-0.30;99.90;;;;;;5107210;28;20089;-72
2021/12/22 02:32:04;;;;;;;17.65;11.10;;;-0.30;99.90;;;;;;5091457;28;20052;-71
2021/12/22 02:34:38;;;;;;;20.13;12.77;;;-0.60;99.90;;;;;;5093763;28;20082;-73
2021/12/22 02:37:10;;;;;;;21.80;13.25;;;-0.50;99.90;;;;;;5089639;28;20036;-71
2021/12/22 02:39:36;;;;;;;18.98;11.98;;;-0.70;99.90;;;;;;5090597;28;20048;-72
2021/12/22 02:42:02;;;;;;;25.33;14.13;;;-0.60;99.90;;;;;;5089156;28;20046;-70
2021/12/22 02:44:28;;;;;;;25.20;12.65;;;-0.60;99.90;;;;;;5091373;28;20040;-73
2021/12/22 02:46:54;;;;;;;23.08;12.75;;;-0.40;99.90;;;;;;5089699;28;20063;-73
2021/12/22 02:49:19;;;;;;;20.15;12.00;;;-0.90;99.90;;;;;;5089398;28;20047;-72
2021/12/22 02:51:45;;;;;;;21.27;13.02;;;-0.80;99.90;;;;;;5087912;28;20082;-73
2021/12/22 02:54:19;;;;;;;17.60;11.35;;;-0.70;99.90;;;;;;5089497;28;20467;-71
2021/12/22 03:02:14;;;;;;;19.70;12.75;;;-0.60;99.90;;;;;;5105824;28;20105;-72
2021/12/22 03:04:50;;;;;;;21.73;13.40;;;-0.70;99.90;;;;;;5087479;28;20052;-72
2021/12/22 03:07:27;;;;;;;21.58;13.98;;;-0.80;99.90;;;;;;5089804;28;20134;-72
2021/12/22 03:10:04;;;;;;;22.83;14.35;;;-0.60;99.90;;;;;;5081380;28;20138;-72
2021/12/22 03:12:33;;;;;;;24.30;13.80;;;-1.10;99.90;;;;;;5087782;28;20133;-72
2021/12/22 03:15:00;;;;;;;25.02;14.57;;;-1.00;99.90;;;;;;5089810;28;20407;-73
2021/12/22 03:17:25;;;;;;;23.20;13.35;;;-0.30;99.90;;;;;;5089373;28;20519;-73
2021/12/22 03:19:53;;;;;;;23.15;15.82;;;-1.00;99.90;;;;;;5087901;28;20072;-73
2021/12/22 03:22:20;;;;;;;22.48;14.50;;;-0.80;99.90;;;;;;5085832;28;20126;-73
2021/12/22 03:24:48;;;;;;;23.80;13.27;;;-1.10;99.90;;;;;;5087552;28;20431;-72
2021/12/22 03:27:14;;;;;;;24.15;14.73;;;-1.20;99.90;;;;;;5090223;28;20048;-71
2021/12/22 03:29:40;;;;;;;25.00;14.07;;;-1.00;99.90;;;;;;5088249;28;20036;-71
2021/12/22 03:32:10;;;;;;;23.17;14.75;;;0.10;99.90;;;;;;5090315;28;20101;-71
2021/12/22 03:34:37;;;;;;;29.92;15.75;;;-1.20;99.90;;;;;;5087117;28;20493;-71
2021/12/22 03:37:04;;;;;;;25.02;15.20;;;-0.80;99.90;;;;;;5090490;28;20094;-71
2021/12/22 03:39:30;;;;;;;22.33;13.75;;;-0.90;99.90;;;;;;5087710;28;20040;-71
2021/12/22 03:41:56;;;;;;;22.67;13.50;;;-0.50;99.90;;;;;;5089699;28;20075;-72
2021/12/22 03:44:22;;;;;;;26.17;13.95;;;-1.10;99.90;;;;;;5088498;28;20480;-71
2021/12/22 03:46:47;;;;;;;27.15;13.65;;;-1.00;99.90;;;;;;5088447;28;20047;-71
2021/12/22 03:49:14;;;;;;;27.20;13.20;;;-0.40;99.90;;;;;;5088848;28;20079;-71
2021/12/22 03:51:41;;;;;;;20.02;12.70;;;-1.40;99.90;;;;;;5091088;28;20048;-71
2021/12/22 03:54:08;;;;;;;22.20;12.60;;;-1.10;99.90;;;;;;5087666;28;20131;-70
2021/12/22 03:56:34;;;;;;;23.27;14.23;;;-1.30;99.90;;;;;;5088926;28;20088;-71
2021/12/22 03:59:00;;;;;;;29.15;15.00;;;-1.10;99.90;;;;;;5089419;28;20054;-73
2021/12/22 04:01:26;;;;;;;25.40;14.23;;;-1.10;99.90;;;;;;5089321;28;20392;-72
2021/12/22 04:03:56;;;;;;;20.83;13.05;;;-0.40;99.90;;;;;;5089142;28;20610;-73
2021/12/22 04:06:22;;;;;;;25.35;14.18;;;-1.40;99.90;;;;;;5084148;28;20051;-71
2021/12/22 04:08:48;;;;;;;27.88;14.48;;;-0.40;99.90;;;;;;5087814;28;20036;-70
2021/12/22 04:11:14;;;;;;;21.38;13.45;;;-0.80;99.90;;;;;;5087005;28;20198;-71
2021/12/22 04:13:40;;;;;;;22.98;12.98;;;-1.20;99.90;;;;;;5089606;28;20400;-72
2021/12/22 04:16:05;;;;;;;22.30;11.68;;;-1.30;99.90;;;;;;5088792;28;20092;-71
2021/12/22 04:18:31;;;;;;;21.75;12.98;;;-0.40;99.90;;;;;;5089544;28;20058;-70
2021/12/22 04:20:57;;;;;;;24.33;13.48;;;-1.50;99.90;;;;;;5088422;28;20043;-70
2021/12/22 04:23:23;;;;;;;26.05;13.57;;;-1.30;99.90;;;;;;5089570;28;20044;-74
2021/12/22 04:25:48;;;;;;;20.98;12.35;;;-1.30;99.90;;;;;;5088346;28;20040;-73
2021/12/22 04:28:14;;;;;;;25.00;13.98;;;-1.20;99.90;;;;;;5088667;28;20146;-72
2021/12/22 04:30:49;;;;;;;23.75;14.45;;;-1.40;99.90;;;;;;5088428;28;20044;-71
2021/12/22 04:33:22;;;;;;;25.45;13.07;;;-1.40;99.90;;;;;;5089742;28;20131;-73
2021/12/22 04:35:49;;;;;;;21.63;12.93;;;-1.50;99.90;;;;;;5085675;28;20058;-71
2021/12/22 04:38:15;;;;;;;28.75;14.30;;;-1.50;99.90;;;;;;5087930;28;20052;-71
2021/12/22 04:40:41;;;;;;;25.75;13.52;;;-1.60;99.90;;;;;;5090180;28;20131;-73
2021/12/22 04:43:07;;;;;;;26.83;14.27;;;-1.50;99.90;;;;;;5090352;28;20123;-72
2021/12/22 04:45:33;;;;;;;22.27;12.65;;;-1.60;99.90;;;;;;5090027;28;20040;-71
2021/12/22 04:47:58;;;;;;;24.30;12.15;;;-1.60;99.90;;;;;;5086867;28;20114;-72
2021/12/22 04:50:25;;;;;;;27.38;14.65;;;-1.70;99.90;;;;;;5092014;28;20054;-72
2021/12/22 04:53:08;;;;;;;26.00;14.45;;;-1.70;99.90;;;;;;5092891;28;20079;-72
2021/12/22 04:55:33;;;;;;;24.17;13.63;;;-1.90;99.90;;;;;;5090286;28;20040;-71
2021/12/22 04:58:00;;;;;;;22.77;12.38;;;-1.70;99.90;;;;;;5087370;28;20028;-72
2021/12/22 05:00:28;;;;;;;17.88;9.73;;;-2.00;99.90;;;;;;5071824;28;20071;-73
2021/12/22 05:02:55;;;;;;;25.25;12.45;;;-1.80;99.90;;;;;;5084840;28;20486;-72
2021/12/22 05:05:21;;;;;;;24.77;13.13;;;-1.80;99.90;;;;;;5092411;28;20110;-73
2021/12/22 05:07:47;;;;;;;24.08;13.27;;;-0.80;99.90;;;;;;5090862;28;20479;-73
2021/12/22 05:10:15;;;;;;;22.73;11.93;;;-2.00;99.90;;;;;;5092627;28;20036;-73
2021/12/22 05:12:42;;;;;;;21.50;11.30;;;-1.90;99.90;;;;;;5082196;28;20040;-73
2021/12/22 05:15:08;;;;;;;22.40;12.15;;;-2.00;99.90;;;;;;5074822;28;20039;-73
2021/12/22 05:20:10;;;;;;;20.45;11.20;;;-2.20;99.90;;;;;;5089844;28;20054;-71
2021/12/22 05:22:35;;;;;;;22.10;12.77;;;-2.20;99.90;;;;;;5092467;28;20040;-71
2021/12/22 05:25:03;;;;;;;25.00;13.30;;;-1.20;99.90;;;;;;5090094;28;20384;-71
2021/12/22 05:27:30;;;;;;;25.20;13.98;;;-2.30;99.90;;;;;;5092757;28;20055;-73
2021/12/22 05:29:56;;;;;;;28.55;14.55;;;-2.30;99.90;;;;;;5088435;28;20040;-74
2021/12/22 05:32:25;;;;;;;23.17;12.68;;;-2.40;99.90;;;;;;5092636;28;20488;-73
2021/12/22 05:34:52;;;;;;;19.70;11.48;;;-1.90;99.90;;;;;;5090766;28;20498;-72
2021/12/22 05:37:18;;;;;;;26.73;14.93;;;-2.40;99.90;;;;;;5092354;28;20118;-71
2021/12/22 05:39:44;;;;;;;23.13;12.88;;;-2.20;99.90;;;;;;5092681;28;20596;-72
2021/12/22 05:42:10;;;;;;;17.10;10.93;;;-2.20;99.90;;;;;;5091133;28;20059;-71
2021/12/22 05:44:35;;;;;;;25.35;13.23;;;-2.40;99.90;;;;;;5092410;28;20044;-74
2021/12/22 05:47:01;;;;;;;20.95;11.75;;;-2.40;99.90;;;;;;5090573;28;20044;-74
2021/12/22 05:49:27;;;;;;;21.10;12.02;;;-2.50;99.90;;;;;;5091605;28;20040;-72
2021/12/22 05:51:53;;;;;;;22.70;13.30;;;-2.50;99.90;;;;;;5073177;28;20054;-73
2021/12/22 05:54:18;;;;;;;22.00;13.52;;;-2.40;99.90;;;;;;5092038;28;20119;-73
2021/12/22 05:56:44;;;;;;;24.33;11.82;;;-2.50;99.90;;;;;;5090901;28;20035;-71
2021/12/22 05:59:10;;;;;;;24.73;13.50;;;-2.40;99.90;;;;;;5092325;28;20046;-74
2021/12/22 06:01:35;;;;;;;21.85;12.55;;;-2.30;99.90;;;;;;5072236;28;20113;-74
2021/12/22 06:04:03;;;;;;;26.85;14.38;;;-2.40;99.90;;;;;;5091103;28;20052;-71
2021/12/22 06:06:29;;;;;;;25.67;14.05;;;-2.60;99.90;;;;;;5089406;28;20272;-73
2021/12/22 06:08:56;;;;;;;23.02;13.32;;;-2.40;99.90;;;;;;5091378;28;20123;-71
2021/12/22 06:11:21;;;;;;;21.35;12.02;;;-2.60;99.90;;;;;;5090397;28;20456;-73
2021/12/22 06:13:47;;;;;;;23.50;13.52;;;-2.60;99.90;;;;;;5091420;28;20078;-73
2021/12/22 06:16:13;;;;;;;23.02;13.75;;;-2.60;99.90;;;;;;5089880;28;20514;-73
2021/12/22 06:18:43;;;;;;;23.10;12.13;;;-2.70;99.90;;;;;;5070739;28;20079;-71
2021/12/22 06:21:10;;;;;;;26.58;14.70;;;-2.60;99.90;;;;;;5090345;28;20079;-72
2021/12/22 06:23:36;;;;;;;22.90;13.80;;;-2.70;99.90;;;;;;5073568;28;20044;-73
2021/12/22 06:26:02;;;;;;;25.25;12.98;;;-2.50;99.90;;;;;;5090428;28;20040;-74
2021/12/22 06:28:28;;;;;;;18.42;11.10;;;-2.70;99.90;;;;;;5090057;28;20043;-71
2021/12/22 06:30:54;;;;;;;20.60;12.77;;;-1.70;99.90;;;;;;5090177;28;20081;-71
2021/12/22 06:33:20;;;;;;;25.05;12.95;;;-2.60;99.90;;;;;;5072051;28;20604;-74
2021/12/22 06:35:47;;;;;;;22.13;12.02;;;-2.60;99.90;;;;;;5091610;28;20051;-73
2021/12/22 06:38:17;;;;;;;21.20;11.45;;;-2.60;99.90;;;;;;5089579;28;20043;-72
2021/12/22 06:40:43;;;;;;;23.48;11.73;;;-2.60;99.90;;;;;;5089591;28;20044;-73
2021/12/22 06:43:09;;;;;;;21.98;11.60;;;-2.70;99.90;;;;;;5088227;28;20086;-72
2021/12/22 06:45:35;;;;;;;23.42;13.48;;;-2.70;99.90;;;;;;5091389;28;20063;-71
2021/12/22 06:48:01;;;;;;;21.95;12.45;;;-2.70;99.90;;;;;;5088328;28;20036;-74
2021/12/22 06:50:27;;;;;;;25.95;14.00;;;-2.60;99.90;;;;;;5090019;28;20047;-72
2021/12/22 06:52:53;;;;;;;28.15;14.32;;;-2.00;99.90;;;;;;5088648;28;20039;-71
2021/12/22 06:55:19;;;;;;;23.98;12.05;;;-2.50;99.90;;;;;;5072958;28;20032;-72
2021/12/22 06:57:45;;;;;;;20.85;10.73;;;-2.40;99.90;;;;;;5072751;28;20511;-72
2021/12/22 07:00:12;;;;;;;23.80;13.45;;;-2.60;99.90;;;;;;5089217;28;20352;-73
2021/12/22 07:02:38;;;;;;;18.25;10.45;;;-2.50;99.90;;;;;;5072556;28;20391;-75
2021/12/22 07:05:08;;;;;;;24.63;12.82;;;-2.50;99.90;;;;;;5087614;28;20063;-74
2021/12/22 07:07:34;;;;;;;22.10;11.70;;;-2.50;99.90;;;;;;5089576;28;20070;-72
2021/12/22 07:10:00;;;;;;;22.02;12.05;;;-2.30;99.90;;;;;;5089152;28;20169;-72
2021/12/22 07:12:26;;;;;;;21.77;11.45;;;-2.40;99.90;;;;;;5073260;28;20538;-72
2021/12/22 07:14:51;;;;;;;24.30;12.38;;;-2.30;99.90;;;;;;5088416;28;20754;-74
2021/12/22 07:17:17;;;;;;;31.27;14.50;;;-1.30;99.90;;;;;;5088397;28;20051;-74
2021/12/22 07:19:43;;;;;;;26.23;13.80;;;-2.40;99.90;;;;;;5090501;28;20409;-72
2021/12/22 07:22:09;;;;;;;27.98;13.18;;;-2.20;99.90;;;;;;5071544;28;20052;-73
2021/12/22 07:24:40;;;;;;;23.50;12.23;;;-2.40;99.90;;;;;;5090412;28;20561;-74
2021/12/22 07:27:06;;;;;;;24.25;13.20;;;-2.30;99.90;;;;;;5072192;28;20036;-72
2021/12/22 07:29:31;;;;;;;25.25;13.50;;;-2.40;99.90;;;;;;5083434;28;20040;-72
2021/12/22 07:31:57;;;;;;;26.83;13.68;;;-2.30;99.90;;;;;;5082415;28;20043;-75
2021/12/22 07:34:38;;;;;;;24.20;13.75;;;-2.30;99.90;;;;;;5090778;28;20044;-75
2021/12/22 07:37:13;;;;;;;23.63;13.05;;;-2.40;99.90;;;;;;5089861;28;20075;-75
2021/12/22 07:39:39;;;;;;;29.40;14.18;;;-1.40;99.90;;;;;;5089010;28;20036;-73
2021/12/22 07:42:05;;;;;;;23.95;13.10;;;-2.20;99.90;;;;;;5071078;28;20043;-71
2021/12/22 07:44:30;;;;;;;24.58;12.27;;;-2.20;99.90;;;;;;5086429;28;20348;-73
2021/12/22 07:46:56;;;;;;;25.85;13.07;;;-2.10;99.90;;;;;;5080170;28;20032;-72
2021/12/22 07:49:22;;;;;;;19.42;10.70;;;-2.20;99.90;;;;;;5082658;28;20086;-73
2021/12/22 07:51:47;;;;;;;18.25;10.88;;;-2.10;99.90;;;;;;5087534;28;20036;-73
2021/12/22 07:54:13;;;;;;;23.55;12.30;;;-1.50;99.90;;;;;;5087851;28;20046;-72
2021/12/22 07:56:39;;;;;;;20.58;10.70;;;-2.10;99.90;;;;;;5088756;28;20377;-74
2021/12/22 07:59:05;;;;;;;19.17;11.40;;;-2.10;99.90;;;;;;5082286;28;20047;-77
2021/12/22 08:01:32;;;;;;;22.50;12.52;;;-2.10;99.90;;;;;;5083444;28;20051;-77
2021/12/22 08:03:59;;;;;;;23.30;12.38;;;-1.90;99.90;;;;;;5082897;28;20085;-75
2021/12/22 08:06:24;;;;;;;24.65;12.60;;;-1.40;99.90;;;;;;5077467;28;20043;-73
2021/12/22 08:08:50;;;;;;;23.75;12.10;;;-2.00;99.90;;;;;;5084971;28;20040;-75
2021/12/22 08:11:16;;;;;;;22.98;11.63;;;-1.80;99.90;;;;;;5084805;28;20039;-74
2021/12/22 08:13:42;;;;;;;21.60;11.77;;;-1.80;99.90;;;;;;5082608;28;20388;-72
2021/12/22 08:16:07;;;;;;;23.33;12.23;;;-1.90;99.90;;;;;;5079988;28;20040;-72
2021/12/22 08:18:33;;;;;;;17.48;9.68;;;-1.80;99.90;;;;;;5083770;28;20541;-74
2021/12/22 08:20:59;;;;;;;25.23;13.20;;;-1.80;99.90;;;;;;5066477;28;20043;-72
2021/12/22 08:23:25;;;;;;;25.60;13.05;;;-1.70;99.90;;;;;;5084181;28;20040;-77
2021/12/22 08:25:51;;;;;;;24.73;12.98;;;-1.70;99.90;;;;;;5092538;28;20835;-73
2021/12/22 08:28:17;;;;;;;27.60;13.77;;;-1.70;99.90;;;;;;5088608;28;20048;-73
2021/12/22 08:30:44;;;;;;;22.75;12.75;;;-1.60;99.90;;;;;;5092907;28;20048;-73
2021/12/22 08:33:19;;;;;;;23.27;13.27;;;-1.70;99.90;;;;;;5091905;28;20047;-74
2021/12/22 08:38:50;;;;;;;25.85;13.48;;;-1.50;99.90;;;;;;5088890;28;20040;-75
2021/12/22 08:41:20;;;;;;;24.33;12.60;;;-1.50;99.90;;;;;;5089410;28;20051;-73
2021/12/22 08:43:46;;;;;;;21.40;12.27;;;-1.60;99.90;;;;;;5085672;28;20082;-72
2021/12/22 08:46:12;;;;;;;21.55;11.73;;;-1.50;99.90;;;;;;5087875;28;20495;-74
2021/12/22 08:48:38;;;;;;;22.73;12.05;;;-1.50;99.90;;;;;;5084975;28;20043;-72
2021/12/22 08:51:04;;;;;;;19.48;11.85;;;-1.30;99.90;;;;;;5075148;28;20036;-72
2021/12/22 08:53:29;;;;;;;22.70;11.50;;;-1.40;99.90;;;;;;5087113;28;20814;-76
2021/12/22 08:55:55;;;;;;;23.58;12.98;;;-1.30;99.90;;;;;;5087681;28;20127;-72
2021/12/22 08:58:21;;;;;;;23.50;12.65;;;-1.20;99.90;;;;;;5056680;28;20051;-75
2021/12/22 09:00:47;;;;;;;21.42;12.82;;;-1.20;99.90;;;;;;5057088;28;20047;-72
2021/12/22 09:03:12;;;;;;;24.65;13.25;;;-1.20;99.90;;;;;;5092757;28;20358;-75
2021/12/22 09:05:38;;;;;;;22.58;12.38;;;-1.10;99.90;;;;;;5090501;28;20044;-74
2021/12/22 09:08:04;;;;;;;23.85;13.95;;;-1.10;99.90;;;;;;5087973;28;20043;-73
2021/12/22 09:10:30;;;;;;;21.05;12.60;;;-1.10;99.90;;;;;;5089849;28;20044;-72
2021/12/22 09:12:55;;;;;;;26.73;14.73;;;-1.00;99.90;;;;;;5091807;28;20044;-71
2021/12/22 09:15:22;;;;;;;21.58;12.27;;;-1.00;99.90;;;;;;5090449;28;20051;-73
2021/12/22 09:17:48;;;;;;;23.38;13.35;;;-1.10;99.90;;;;;;5091700;28;20044;-72
2021/12/22 09:20:14;;;;;;;21.73;12.48;;;-0.90;99.90;;;;;;5089695;28;20043;-73
2021/12/22 09:22:40;;;;;;;22.08;13.75;;;-0.90;99.90;;;;;;5092007;28;20076;-70
2021/12/22 09:25:06;;;;;;;20.98;12.65;;;-0.50;99.90;;;;;;5070753;28;20121;-72
2021/12/22 09:27:32;;;;;;;26.08;12.73;;;-0.80;99.90;;;;;;5084003;28;20166;-71
2021/12/22 09:29:57;;;;;;;23.48;12.57;;;0.20;99.90;;;;;;5079848;28;20111;-72
2021/12/22 09:32:23;;;;;;;23.60;12.63;;;-0.70;99.90;;;;;;5085555;28;20055;-72
2021/12/22 09:34:49;;;;;;;26.60;13.18;;;-0.70;99.90;;;;;;5079366;28;20048;-73
2021/12/22 09:37:17;;;;;;;20.70;12.00;;;-0.70;99.90;;;;;;5090324;28;20075;-69
2021/12/22 09:39:43;;;;;;;22.75;12.52;;;-0.60;99.90;;;;;;5093195;28;20083;-72
2021/12/22 09:42:10;;;;;;;22.80;12.30;;;0.30;99.90;;;;;;5093102;28;20702;-69
2021/12/22 09:44:43;;;;;;;21.40;11.27;;;-0.30;99.90;;;;;;5091646;28;20036;-74
2021/12/22 09:47:10;;;;;;;21.77;11.68;;;-0.20;99.90;;;;;;5090302;28;20349;-73
2021/12/22 09:52:23;;;;;;;20.63;10.35;;;-0.30;99.90;;;;;;5090288;28;20400;-73
2021/12/22 09:54:59;;;;;;;23.52;10.93;;;-0.30;99.90;;;;;;5089841;28;20511;-73
2021/12/22 09:57:26;;;;;;;22.23;11.73;;;-0.30;99.90;;;;;;5090855;28;20040;-71
2021/12/22 09:59:53;;;;;;;21.10;12.15;;;-0.30;99.90;;;;;;5090729;28;20081;-72
2021/12/22 10:02:22;;;;;;;21.02;11.38;;;-0.30;99.90;;;;;;5097421;28;20047;-74
2021/12/22 10:04:48;;;;;;;22.05;11.30;;;-0.10;99.90;;;;;;5076844;28;20101;-72
2021/12/22 10:07:20;;;;;;;20.00;10.93;;;-0.20;99.90;;;;;;5090618;28;20060;-72
2021/12/22 10:09:48;;;;;;;22.92;11.30;;;-0.30;99.90;;;;;;5091291;28;20046;-73
2021/12/22 10:12:22;;;;;;;26.38;10.95;;;-0.20;99.90;;;;;;5087083;28;20090;-71
2021/12/22 10:15:00;;;;;;;24.17;11.50;;;-0.20;99.90;;;;;;5073280;28;20651;-73
2021/12/22 10:17:44;;;;;;;20.25;9.60;;;-0.10;99.90;;;;;;5083579;28;20586;-71
2021/12/22 10:20:12;;;;;;;16.95;9.30;;;-0.20;99.90;;;;;;5084558;28;20499;-70
2021/12/22 10:22:41;;;;;;;16.10;9.95;;;-0.10;99.90;;;;;;5079177;28;20044;-72
2021/12/22 10:25:18;;;;;;;24.85;11.32;;;-0.20;99.90;;;;;;5072253;28;20036;-74
2021/12/22 10:28:07;;;;;;;15.95;9.77;;;-0.30;99.90;;;;;;5084117;28;20497;-73
2021/12/22 10:30:41;;;;;;;22.75;11.48;;;-0.30;99.90;;;;;;5082677;28;20035;-71
2021/12/22 10:33:14;;;;;;;20.88;10.88;;;-0.30;99.90;;;;;;5079629;28;20122;-74
2021/12/22 10:35:46;;;;;;;22.95;11.23;;;-0.20;99.90;;;;;;5061941;28;20040;-71
2021/12/22 10:38:14;;;;;;;20.15;10.27;;;-0.20;99.90;;;;;;5081710;28;20173;-71
2021/12/22 10:40:42;;;;;;;19.85;10.48;;;-0.10;99.90;;;;;;5081960;28;20043;-74
2021/12/22 10:43:19;;;;;;;19.17;10.63;;;-0.10;99.90;;;;;;5077455;28;20143;-74
2021/12/22 10:45:48;;;;;;;17.30;10.40;;;0.40;99.90;;;;;;5081224;28;20044;-73
2021/12/22 10:51:05;;;;;;;20.65;9.27;;;0.50;99.90;;;;;;5080427;28;20048;-71
2021/12/22 10:53:31;;;;;;;21.67;10.45;;;0.30;99.90;;;;;;5092134;28;20081;-72
2021/12/22 10:55:58;;;;;;;20.38;10.57;;;0.20;99.90;;;;;;5066291;28;20137;-71
2021/12/22 10:58:29;;;;;;;17.58;9.20;;;0.20;99.90;;;;;;5086480;28;20090;-73
2021/12/22 11:01:14;;;;;;;16.73;8.60;;;0.30;99.90;;;;;;5084217;28;20112;-71
2021/12/22 11:03:44;;;;;;;;;;;0.20;99.90;;;;;;5083922;28;20044;-70
2021/12/22 11:06:25;;;;;;;15.43;9.68;;;0.60;99.90;;;;;;5083404;28;19963;-73
2021/12/22 11:09:10;;;;;;;20.05;10.15;;;0.30;99.90;;;;;;5081115;28;20048;-71
2021/12/22 11:11:41;;;;;;;15.98;10.80;;;0.50;99.90;;;;;;5064744;28;20052;-72
2021/12/22 11:14:19;;;;;;;19.55;10.32;;;0.40;99.90;;;;;;5081936;28;20058;-72
2021/12/22 11:16:59;;;;;;;16.50;9.63;;;0.50;99.90;;;;;;5084213;28;20184;-73
2021/12/22 11:19:27;;;;;;;18.25;10.45;;;0.40;99.90;;;;;;5082894;28;20085;-74
2021/12/22 11:22:04;;;;;;;16.15;8.80;;;0.90;99.90;;;;;;5083129;28;20051;-71
2021/12/22 11:24:33;;;;;;;17.17;9.68;;;0.40;99.90;;;;;;5082750;28;20048;-72
2021/12/22 11:26:59;;;;;;;15.88;9.75;;;0.50;99.90;;;;;;5083073;28;20047;-71
2021/12/22 11:29:25;;;;;;;17.88;10.02;;;0.90;99.90;;;;;;5082444;28;20040;-71
2021/12/22 11:31:52;;;;;;;15.63;9.05;;;0.40;99.90;;;;;;5084038;28;20093;-74
2021/12/22 11:34:19;;;;;;;19.98;9.98;;;0.40;99.90;;;;;;5083219;28;20124;-73
2021/12/22 11:36:47;;;;;;;12.65;6.95;;;0.90;99.90;;;;;;5067335;28;20139;-73
2021/12/22 11:39:14;;;;;;;15.15;9.15;;;1.10;99.90;;;;;;5084149;28;20051;-73
2021/12/22 11:41:44;;;;;;;14.00;9.07;;;0.60;99.90;;;;;;5083179;28;20052;-72
2021/12/22 11:44:11;;;;;;;16.27;9.75;;;1.00;99.90;;;;;;5083801;28;20486;-69
2021/12/22 11:46:38;;;;;;;15.13;9.38;;;1.40;99.90;;;;;;5083304;28;20044;-72
2021/12/22 11:49:04;;;;;;;13.25;7.22;;;1.30;99.90;;;;;;5084843;28;20050;-70
2021/12/22 11:51:34;;;;;;;15.65;8.70;;;1.20;99.90;;;;;;5074114;28;20543;-73
2021/12/22 11:54:10;;;;;;;14.98;9.65;;;1.00;99.90;;;;;;5075758;28;20670;-73
2021/12/22 11:56:39;;;;;;;13.85;8.10;;;0.90;99.90;;;;;;5079277;28;20079;-70
2021/12/22 11:59:06;;;;;;;15.35;9.75;;;0.80;99.90;;;;;;5090477;28;20434;-76
2021/12/22 12:01:32;;;;;;;14.77;8.95;;;0.90;99.90;;;;;;5086176;28;20052;-70
2021/12/22 12:04:17;;;;;;;12.00;6.13;;;0.70;99.90;;;;;;5103632;28;20039;-73
2021/12/22 12:06:48;;;;;;;16.77;9.73;;;0.50;99.90;;;;;;5087032;28;20055;-74
2021/12/22 12:09:14;;;;;;;19.40;10.15;;;0.40;99.90;;;;;;5086804;28;20124;-71
2021/12/22 12:23:20;;;;;;;15.52;9.48;;;0.20;99.90;;;;;;5086270;28;20186;-72
2021/12/22 12:25:46;;;;;;;16.52;8.90;;;0.30;99.90;;;;;;5086524;28;20051;-73
2021/12/22 12:28:17;;;;;;;16.67;9.35;;;0.30;99.90;;;;;;5086381;28;20067;-72
2021/12/22 12:30:49;;;;;;;16.98;10.77;;;0.30;99.90;;;;;;5083407;28;20036;-72
2021/12/22 12:33:26;;;;;;;15.85;8.63;;;0.70;99.90;;;;;;5086877;28;20377;-70
2021/12/22 12:36:04;;;;;;;17.92;11.20;;;-0.20;99.90;;;;;;5077907;28;20107;-73
2021/12/22 12:38:52;;;;;;;13.40;8.30;;;0.20;99.90;;;;;;5088660;28;20066;-70
2021/12/22 12:41:21;;;;;;;12.55;8.27;;;0.20;99.90;;;;;;5088937;28;20457;-70
2021/12/22 12:43:51;;;;;;;15.40;9.70;;;0.30;99.90;;;;;;5070787;28;20450;-71
2021/12/22 12:46:20;;;;;;;16.33;8.63;;;0.20;99.90;;;;;;5086191;28;20042;-72
2021/12/22 12:48:53;;;;;;;15.02;10.05;;;0.30;99.90;;;;;;5086753;28;20528;-73
2021/12/22 12:51:26;;;;;;;16.20;9.30;;;0.30;99.90;;;;;;5069582;28;20513;-71
2021/12/22 12:53:56;;;;;;;17.48;8.98;;;0.30;99.90;;;;;;5086588;28;20043;-72
2021/12/22 12:56:55;;;;;;;18.20;9.05;;;0.30;99.90;;;;;;5086227;28;20101;-71
2021/12/22 12:59:38;;;;;;;18.02;8.15;;;0.30;99.90;;;;;;5083590;28;20056;-71
2021/12/22 13:02:08;;;;;;;14.85;8.50;;;0.30;99.90;;;;;;5086599;28;20044;-73
2021/12/22 13:04:35;;;;;;;18.77;8.93;;;0.30;99.90;;;;;;5085956;28;20747;-72
2021/12/22 13:07:12;;;;;;;13.57;8.65;;;0.30;99.90;;;;;;5085446;28;20075;-74
2021/12/22 13:09:49;;;;;;;12.52;7.55;;;0.30;99.90;;;;;;5084774;28;20446;-71